createdAt,value
2018-05-16T00:00:06.382Z,15.71
2018-05-16T00:01:06.210Z,15.7
2018-05-16T00:02:06.264Z,15.7
2018-05-16T00:03:06.295Z,15.69
2018-05-16T00:04:06.210Z,15.67
2018-05-16T00:05:06.249Z,15.69
2018-05-16T00:06:06.246Z,15.69
2018-05-16T00:07:06.244Z,15.67
2018-05-16T00:08:06.214Z,15.69
2018-05-16T00:09:06.226Z,15.69
2018-05-16T00:10:06.230Z,15.68
2018-05-16T00:11:06.299Z,15.69
2018-05-16T00:12:06.237Z,15.69
2018-05-16T00:13:06.250Z,15.7
2018-05-16T00:14:06.270Z,15.66
2018-05-16T00:15:06.261Z,15.63
2018-05-16T00:16:06.374Z,15.53
2018-05-16T00:17:06.280Z,15.49
2018-05-16T00:18:06.313Z,15.47
2018-05-16T00:19:06.350Z,15.46
2018-05-16T00:20:06.238Z,15.47
2018-05-16T00:21:06.497Z,15.43
2018-05-16T00:22:06.217Z,15.41
2018-05-16T00:23:06.258Z,15.37
2018-05-16T00:24:06.237Z,15.33
2018-05-16T00:25:06.444Z,15.25
2018-05-16T00:26:06.314Z,15.25
2018-05-16T00:27:06.275Z,15.19
2018-05-16T00:28:06.459Z,15.18
2018-05-16T00:29:06.218Z,15.15
2018-05-16T00:30:06.360Z,15.11
2018-05-16T00:31:06.330Z,15.04
2018-05-16T00:32:06.278Z,14.95
2018-05-16T00:33:06.288Z,14.96
2018-05-16T00:34:06.292Z,14.96
2018-05-16T00:35:06.259Z,14.95
2018-05-16T00:36:06.293Z,14.98
2018-05-16T00:37:06.323Z,14.94
2018-05-16T00:38:06.277Z,14.98
2018-05-16T00:39:06.335Z,15
2018-05-16T00:40:06.875Z,15.01
2018-05-16T00:41:06.283Z,15.01
2018-05-16T00:42:06.261Z,15.02
2018-05-16T00:43:06.213Z,15.07
2018-05-16T00:44:06.302Z,15.1
2018-05-16T00:45:06.805Z,15.06
2018-05-16T00:46:06.306Z,15.1
2018-05-16T00:47:06.361Z,15.08
2018-05-16T00:48:06.290Z,15
2018-05-16T00:49:06.977Z,15.04
2018-05-16T00:50:06.284Z,15.05
2018-05-16T00:51:06.293Z,15.07
2018-05-16T00:52:06.272Z,15.08
2018-05-16T00:53:06.357Z,15.07
2018-05-16T00:54:06.473Z,15.09
2018-05-16T00:55:06.275Z,15.1
2018-05-16T00:56:06.326Z,15.1
2018-05-16T00:57:06.287Z,15.09
2018-05-16T00:58:06.286Z,15.12
2018-05-16T00:59:06.319Z,15.12
2018-05-16T01:00:06.309Z,15.11
2018-05-16T01:01:06.375Z,15.12
2018-05-16T01:02:06.391Z,15.12
2018-05-16T01:03:06.285Z,15.12
2018-05-16T01:04:06.295Z,15.11
2018-05-16T01:05:06.897Z,15.11
2018-05-16T01:06:06.351Z,15.1
2018-05-16T01:07:06.477Z,15.1
2018-05-16T01:08:06.298Z,15.11
2018-05-16T01:09:06.272Z,15.12
2018-05-16T01:10:06.334Z,15.13
2018-05-16T01:11:06.279Z,15.13
2018-05-16T01:12:06.307Z,15.12
2018-05-16T01:13:06.289Z,15.12
2018-05-16T01:14:06.415Z,15.1
2018-05-16T01:15:06.286Z,15.1
2018-05-16T01:16:06.280Z,15.09
2018-05-16T01:17:06.266Z,15.06
2018-05-16T01:18:06.268Z,15.09
2018-05-16T01:19:06.313Z,15.06
2018-05-16T01:20:06.393Z,15.06
2018-05-16T01:21:06.276Z,15.07
2018-05-16T01:22:06.276Z,15.03
2018-05-16T01:23:06.347Z,15.04
2018-05-16T01:24:06.226Z,15.03
2018-05-16T01:25:06.428Z,15
2018-05-16T01:26:06.278Z,14.99
2018-05-16T01:27:06.307Z,14.99
2018-05-16T01:28:06.247Z,14.99
2018-05-16T01:29:06.736Z,14.97
2018-05-16T01:30:06.278Z,14.92
2018-05-16T01:31:06.467Z,14.96
2018-05-16T01:32:06.396Z,14.93
2018-05-16T01:33:06.288Z,14.93
2018-05-16T01:34:06.287Z,14.94
2018-05-16T01:35:06.348Z,14.95
2018-05-16T01:36:06.317Z,14.95
2018-05-16T01:37:06.282Z,14.96
2018-05-16T01:38:06.289Z,14.96
2018-05-16T01:39:06.320Z,14.96
2018-05-16T01:40:07.490Z,14.95
2018-05-16T01:41:06.346Z,14.97
2018-05-16T01:42:06.334Z,14.96
2018-05-16T01:43:06.295Z,14.96
2018-05-16T01:44:06.279Z,14.98
2018-05-16T01:45:06.347Z,14.95
2018-05-16T01:46:06.271Z,14.99
2018-05-16T01:47:06.269Z,14.99
2018-05-16T01:48:06.296Z,15.01
2018-05-16T01:49:06.276Z,14.99
2018-05-16T01:50:06.287Z,14.98
2018-05-16T01:51:06.281Z,14.98
2018-05-16T01:52:06.262Z,15
2018-05-16T01:53:06.287Z,15
2018-05-16T01:54:06.319Z,14.98
2018-05-16T01:55:06.274Z,14.92
2018-05-16T01:56:06.298Z,14.84
2018-05-16T01:57:06.323Z,14.84
2018-05-16T01:58:06.267Z,14.86
2018-05-16T01:59:06.289Z,14.86
2018-05-16T02:00:06.248Z,14.83
2018-05-16T02:01:06.245Z,14.87
2018-05-16T02:02:06.247Z,14.85
2018-05-16T02:03:06.347Z,14.87
2018-05-16T02:04:06.287Z,14.86
2018-05-16T02:05:06.294Z,14.76
2018-05-16T02:06:06.349Z,14.61
2018-05-16T02:07:06.295Z,14.52
2018-05-16T02:08:06.300Z,14.54
2018-05-16T02:09:06.282Z,14.48
2018-05-16T02:10:06.284Z,14.48
2018-05-16T02:11:06.298Z,14.42
2018-05-16T02:12:06.276Z,14.37
2018-05-16T02:13:06.331Z,14.32
2018-05-16T02:14:06.418Z,14.28
2018-05-16T02:15:06.301Z,14.31
2018-05-16T02:16:06.270Z,14.28
2018-05-16T02:17:06.323Z,14.29
2018-05-16T02:18:06.328Z,14.23
2018-05-16T02:19:07.266Z,14.27
2018-05-16T02:20:06.317Z,14.3
2018-05-16T02:21:06.329Z,14.32
2018-05-16T02:22:06.297Z,14.33
2018-05-16T02:23:06.289Z,14.37
2018-05-16T02:24:06.307Z,14.29
2018-05-16T02:25:06.302Z,14.32
2018-05-16T02:26:06.337Z,14.35
2018-05-16T02:27:06.416Z,14.33
2018-05-16T02:28:06.340Z,14.37
2018-05-16T02:29:06.334Z,14.39
2018-05-16T02:30:06.393Z,14.43
2018-05-16T02:31:06.396Z,14.47
2018-05-16T02:32:06.339Z,14.47
2018-05-16T02:33:06.286Z,14.48
2018-05-16T02:34:06.313Z,14.48
2018-05-16T02:35:06.323Z,14.48
2018-05-16T02:36:06.308Z,14.5
2018-05-16T02:37:06.516Z,14.5
2018-05-16T02:38:06.307Z,14.52
2018-05-16T02:39:06.528Z,14.53
2018-05-16T02:40:06.309Z,14.54
2018-05-16T02:41:06.294Z,14.44
2018-05-16T02:42:06.345Z,14.37
2018-05-16T02:43:06.304Z,14.4
2018-05-16T02:44:06.318Z,14.38
2018-05-16T02:45:06.415Z,14.41
2018-05-16T02:46:06.329Z,14.4
2018-05-16T02:47:06.333Z,14.43
2018-05-16T02:48:06.276Z,14.44
2018-05-16T02:49:06.350Z,14.44
2018-05-16T02:50:06.330Z,14.48
2018-05-16T02:51:06.364Z,14.44
2018-05-16T02:52:06.299Z,14.44
2018-05-16T02:53:06.502Z,14.43
2018-05-16T02:54:06.316Z,14.43
2018-05-16T02:55:06.316Z,14.47
2018-05-16T02:56:06.319Z,14.45
2018-05-16T02:57:06.495Z,14.46
2018-05-16T02:58:06.308Z,14.5
2018-05-16T02:59:06.317Z,14.51
2018-05-16T03:00:06.320Z,14.51
2018-05-16T03:01:06.328Z,14.54
2018-05-16T03:02:06.324Z,14.4
2018-05-16T03:03:06.342Z,14.34
2018-05-16T03:04:06.289Z,14.27
2018-05-16T03:05:06.424Z,14.17
2018-05-16T03:06:06.353Z,14.09
2018-05-16T03:07:06.311Z,14.12
2018-05-16T03:08:06.385Z,14.12
2018-05-16T03:09:06.354Z,14.14
2018-05-16T03:10:06.327Z,14.12
2018-05-16T03:11:06.332Z,14.1
2018-05-16T03:12:06.330Z,14.11
2018-05-16T03:13:06.348Z,14.11
2018-05-16T03:14:06.350Z,14.13
2018-05-16T03:15:06.293Z,14.18
2018-05-16T03:16:06.327Z,14.18
2018-05-16T03:17:06.326Z,14.2
2018-05-16T03:18:06.318Z,14.17
2018-05-16T03:19:06.351Z,14.2
2018-05-16T03:20:06.930Z,14.24
2018-05-16T03:21:06.363Z,14.14
2018-05-16T03:22:06.334Z,14.11
2018-05-16T03:23:06.343Z,14.1
2018-05-16T03:24:06.338Z,14.08
2018-05-16T03:25:06.320Z,14.07
2018-05-16T03:26:06.331Z,13.92
2018-05-16T03:27:06.329Z,13.87
2018-05-16T03:28:06.344Z,13.88
2018-05-16T03:29:06.829Z,13.86
2018-05-16T03:30:06.438Z,13.88
2018-05-16T03:31:06.361Z,13.88
2018-05-16T03:32:06.584Z,13.89
2018-05-16T03:33:06.299Z,13.85
2018-05-16T03:34:06.355Z,13.83
2018-05-16T03:35:06.332Z,13.87
2018-05-16T03:36:06.304Z,13.9
2018-05-16T03:37:06.321Z,13.93
2018-05-16T03:38:06.373Z,13.93
2018-05-16T03:39:06.328Z,13.92
2018-05-16T03:40:06.327Z,13.88
2018-05-16T03:41:06.445Z,13.84
2018-05-16T03:42:06.464Z,13.82
2018-05-16T03:43:06.304Z,13.79
2018-05-16T03:44:06.382Z,13.73
2018-05-16T03:45:06.368Z,13.71
2018-05-16T03:46:06.326Z,13.76
2018-05-16T03:47:06.323Z,13.74
2018-05-16T03:48:06.692Z,13.72
2018-05-16T03:49:06.348Z,13.69
2018-05-16T03:50:06.315Z,13.71
2018-05-16T03:51:06.323Z,13.68
2018-05-16T03:52:07.274Z,13.67
2018-05-16T03:53:06.351Z,13.68
2018-05-16T03:54:06.393Z,13.66
2018-05-16T03:55:06.333Z,13.66
2018-05-16T03:56:06.453Z,13.69
2018-05-16T03:57:06.323Z,13.68
2018-05-16T03:58:06.422Z,13.69
2018-05-16T03:59:06.324Z,13.72
2018-05-16T04:00:06.486Z,13.74
2018-05-16T04:01:06.370Z,13.75
2018-05-16T04:02:06.398Z,13.78
2018-05-16T04:03:06.451Z,13.77
2018-05-16T04:04:06.468Z,13.8
2018-05-16T04:05:06.504Z,13.79
2018-05-16T04:06:06.321Z,13.82
2018-05-16T04:07:06.518Z,13.84
2018-05-16T04:08:06.329Z,13.82
2018-05-16T04:09:06.388Z,13.82
2018-05-16T04:10:06.352Z,13.82
2018-05-16T04:11:06.403Z,13.84
2018-05-16T04:12:06.378Z,13.81
2018-05-16T04:13:06.556Z,13.75
2018-05-16T04:14:06.326Z,13.79
2018-05-16T04:15:06.352Z,13.79
2018-05-16T04:16:06.354Z,13.84
2018-05-16T04:17:06.336Z,13.83
2018-05-16T04:18:06.715Z,13.84
2018-05-16T04:19:06.338Z,13.87
2018-05-16T04:20:06.402Z,13.89
2018-05-16T04:21:06.328Z,13.89
2018-05-16T04:22:06.328Z,13.93
2018-05-16T04:23:06.381Z,13.94
2018-05-16T04:24:06.451Z,13.98
2018-05-16T04:25:06.353Z,13.96
2018-05-16T04:26:06.354Z,13.98
2018-05-16T04:27:06.446Z,13.96
2018-05-16T04:28:06.351Z,13.88
2018-05-16T04:29:06.370Z,13.85
2018-05-16T04:30:06.360Z,13.85
2018-05-16T04:31:06.359Z,13.85
2018-05-16T04:32:06.366Z,13.81
2018-05-16T04:33:06.358Z,13.77
2018-05-16T04:34:06.504Z,13.8
2018-05-16T04:35:06.421Z,13.81
2018-05-16T04:36:06.372Z,13.85
2018-05-16T04:37:06.333Z,13.85
2018-05-16T04:38:06.374Z,13.83
2018-05-16T04:39:06.363Z,13.81
2018-05-16T04:40:06.401Z,13.83
2018-05-16T04:41:06.415Z,13.85
2018-05-16T04:42:06.477Z,13.84
2018-05-16T04:43:06.516Z,13.84
2018-05-16T04:44:06.519Z,13.8
2018-05-16T04:45:06.532Z,13.81
2018-05-16T04:46:06.459Z,13.81
2018-05-16T04:47:06.390Z,13.79
2018-05-16T04:48:06.404Z,13.79
2018-05-16T04:49:07.308Z,13.79
2018-05-16T04:50:06.386Z,13.79
2018-05-16T04:51:06.359Z,13.77
2018-05-16T04:52:06.358Z,13.76
2018-05-16T04:53:06.430Z,13.79
2018-05-16T04:54:06.534Z,13.79
2018-05-16T04:55:06.414Z,13.79
2018-05-16T04:56:06.384Z,13.78
2018-05-16T04:57:06.391Z,13.76
2018-05-16T04:58:06.397Z,13.76
2018-05-16T04:59:06.361Z,13.76
2018-05-16T05:00:06.369Z,13.75
2018-05-16T05:01:06.417Z,13.73
2018-05-16T05:02:06.435Z,13.71
2018-05-16T05:03:06.781Z,13.68
2018-05-16T05:04:06.359Z,13.69
2018-05-16T05:05:06.377Z,13.7
2018-05-16T05:06:06.370Z,13.73
2018-05-16T05:07:06.529Z,13.69
2018-05-16T05:08:06.389Z,13.72
2018-05-16T05:09:06.364Z,13.68
2018-05-16T05:10:06.494Z,13.66
2018-05-16T05:11:31.452Z,13.66
2018-05-16T05:12:06.405Z,13.67
2018-05-16T05:13:06.518Z,13.67
2018-05-16T05:14:06.397Z,13.68
2018-05-16T05:15:06.351Z,13.68
2018-05-16T05:16:06.380Z,13.66
2018-05-16T05:17:06.382Z,13.68
2018-05-16T05:18:06.933Z,13.7
2018-05-16T05:19:06.403Z,13.69
2018-05-16T05:20:06.401Z,13.68
2018-05-16T05:21:06.390Z,13.7
2018-05-16T05:22:06.402Z,13.72
2018-05-16T05:23:06.396Z,13.76
2018-05-16T05:24:07.631Z,13.75
2018-05-16T05:25:06.421Z,13.74
2018-05-16T05:26:06.474Z,13.7
2018-05-16T05:27:07.794Z,13.67
2018-05-16T05:28:06.411Z,13.66
2018-05-16T05:29:06.433Z,13.62
2018-05-16T05:30:06.374Z,13.6
2018-05-16T05:31:06.355Z,13.59
2018-05-16T05:32:06.400Z,13.63
2018-05-16T05:33:07.631Z,13.65
2018-05-16T05:34:07.514Z,13.62
2018-05-16T05:35:06.416Z,13.6
2018-05-16T05:36:06.404Z,13.6
2018-05-16T05:37:06.391Z,13.64
2018-05-16T05:38:06.388Z,13.62
2018-05-16T05:39:06.416Z,13.61
2018-05-16T05:40:06.423Z,13.64
2018-05-16T05:41:06.400Z,13.62
2018-05-16T05:42:06.391Z,13.57
2018-05-16T05:43:06.416Z,13.61
2018-05-16T05:44:06.384Z,13.58
2018-05-16T05:45:06.388Z,13.61
2018-05-16T05:46:06.389Z,13.59
2018-05-16T05:47:06.415Z,13.6
2018-05-16T05:48:06.361Z,13.61
2018-05-16T05:49:07.074Z,13.61
2018-05-16T05:50:06.447Z,13.66
2018-05-16T05:51:06.382Z,13.66
2018-05-16T05:52:06.419Z,13.67
2018-05-16T05:53:06.438Z,13.6
2018-05-16T05:54:06.371Z,13.56
2018-05-16T05:55:06.377Z,13.62
2018-05-16T05:56:06.412Z,13.59
2018-05-16T05:57:06.424Z,13.58
2018-05-16T05:58:06.410Z,13.58
2018-05-16T05:59:06.410Z,13.6
2018-05-16T06:00:07.335Z,13.59
2018-05-16T06:01:06.411Z,13.6
2018-05-16T06:02:06.593Z,13.59
2018-05-16T06:03:06.437Z,13.56
2018-05-16T06:04:06.451Z,13.61
2018-05-16T06:05:06.419Z,13.58
2018-05-16T06:06:06.438Z,13.52
2018-05-16T06:07:06.452Z,13.53
2018-05-16T06:08:06.660Z,13.56
2018-05-16T06:09:06.423Z,13.59
2018-05-16T06:10:06.384Z,13.57
2018-05-16T06:11:06.567Z,13.59
2018-05-16T06:12:06.395Z,13.62
2018-05-16T06:13:06.434Z,13.6
2018-05-16T06:14:06.557Z,13.65
2018-05-16T06:15:06.578Z,13.65
2018-05-16T06:16:06.401Z,13.65
2018-05-16T06:17:06.393Z,13.67
2018-05-16T06:18:06.483Z,13.67
2018-05-16T06:19:06.545Z,13.73
2018-05-16T06:20:06.411Z,13.69
2018-05-16T06:21:06.388Z,13.69
2018-05-16T06:22:06.405Z,13.69
2018-05-16T06:23:06.567Z,13.74
2018-05-16T06:24:06.429Z,13.74
2018-05-16T06:25:06.604Z,13.76
2018-05-16T06:26:06.484Z,13.78
2018-05-16T06:27:08.176Z,13.79
2018-05-16T06:28:06.410Z,13.81
2018-05-16T06:29:06.442Z,13.83
2018-05-16T06:30:06.465Z,13.86
2018-05-16T06:31:06.460Z,13.86
2018-05-16T06:32:06.479Z,13.79
2018-05-16T06:33:06.400Z,13.84
2018-05-16T06:34:06.438Z,13.76
2018-05-16T06:35:06.409Z,13.78
2018-05-16T06:36:06.381Z,13.77
2018-05-16T06:37:06.398Z,13.78
2018-05-16T06:38:06.424Z,13.81
2018-05-16T06:39:06.975Z,13.8
2018-05-16T06:40:06.389Z,13.79
2018-05-16T06:41:06.475Z,13.8
2018-05-16T06:42:06.519Z,13.83
2018-05-16T06:43:06.393Z,13.87
2018-05-16T06:44:06.392Z,13.87
2018-05-16T06:45:06.442Z,13.92
2018-05-16T06:46:06.443Z,13.92
2018-05-16T06:47:06.405Z,13.91
2018-05-16T06:48:06.525Z,13.91
2018-05-16T06:49:06.442Z,13.9
2018-05-16T06:50:06.448Z,13.87
2018-05-16T06:51:06.407Z,13.85
2018-05-16T06:52:06.450Z,13.81
2018-05-16T06:53:06.488Z,13.84
2018-05-16T06:54:06.395Z,13.83
2018-05-16T06:55:07.062Z,13.84
2018-05-16T06:56:06.432Z,13.83
2018-05-16T06:57:06.404Z,13.84
2018-05-16T06:58:06.422Z,13.84
2018-05-16T06:59:06.773Z,13.87
2018-05-16T07:00:06.434Z,13.88
2018-05-16T07:01:06.415Z,13.89
2018-05-16T07:02:06.439Z,13.92
2018-05-16T07:03:06.606Z,13.9
2018-05-16T07:04:07.311Z,13.9
2018-05-16T07:05:06.427Z,13.89
2018-05-16T07:06:06.468Z,13.94
2018-05-16T07:07:06.447Z,13.92
2018-05-16T07:08:06.439Z,13.94
2018-05-16T07:09:06.445Z,13.91
2018-05-16T07:10:06.501Z,13.92
2018-05-16T07:11:06.438Z,13.93
2018-05-16T07:12:06.474Z,13.92
2018-05-16T07:13:06.441Z,13.93
2018-05-16T07:14:06.425Z,13.91
2018-05-16T07:15:06.452Z,13.95
2018-05-16T07:16:06.653Z,13.99
2018-05-16T07:17:06.450Z,14
2018-05-16T07:18:06.425Z,14
2018-05-16T07:19:06.665Z,14.01
2018-05-16T07:20:06.432Z,14.04
2018-05-16T07:21:06.653Z,14.05
2018-05-16T07:22:06.531Z,14.04
2018-05-16T07:23:06.449Z,14.04
2018-05-16T07:24:06.444Z,14.06
2018-05-16T07:25:06.664Z,14.05
2018-05-16T07:26:07.253Z,14.06
2018-05-16T07:27:06.453Z,14.05
2018-05-16T07:28:06.454Z,14.05
2018-05-16T07:29:06.496Z,14.03
2018-05-16T07:30:06.480Z,14.06
2018-05-16T07:31:06.481Z,14.07
2018-05-16T07:32:06.785Z,14.04
2018-05-16T07:33:06.447Z,14.05
2018-05-16T07:34:06.617Z,14.06
2018-05-16T07:35:06.630Z,14.08
2018-05-16T07:36:06.417Z,14.07
2018-05-16T07:37:06.646Z,14.08
2018-05-16T07:38:06.749Z,14.11
2018-05-16T07:39:06.677Z,14.1
2018-05-16T07:40:06.667Z,14.12
2018-05-16T07:41:07.371Z,14.12
2018-05-16T07:42:06.452Z,14.12
2018-05-16T07:43:06.564Z,14.14
2018-05-16T07:44:06.551Z,14.11
2018-05-16T07:45:06.586Z,14.11
2018-05-16T07:46:06.486Z,14.08
2018-05-16T07:47:07.593Z,14.07
2018-05-16T07:48:06.627Z,13.98
2018-05-16T07:49:06.771Z,13.99
2018-05-16T07:50:06.620Z,13.99
2018-05-16T07:51:07.068Z,13.99
2018-05-16T07:52:10.497Z,14.01
2018-05-16T07:53:06.472Z,14.02
2018-05-16T07:54:06.530Z,14.02
2018-05-16T07:55:06.577Z,14.02
2018-05-16T07:56:06.592Z,14.03
2018-05-16T07:57:06.662Z,14.01
2018-05-16T07:58:06.675Z,14.05
2018-05-16T07:59:06.607Z,14.05
2018-05-16T08:00:06.505Z,14.06
2018-05-16T08:01:06.578Z,14.07
2018-05-16T08:02:06.495Z,14.08
2018-05-16T08:03:07.095Z,14.08
2018-05-16T08:04:06.631Z,14.09
2018-05-16T08:05:06.619Z,14.12
2018-05-16T08:06:06.631Z,14.12
2018-05-16T08:07:06.616Z,14.14
2018-05-16T08:08:06.671Z,14.15
2018-05-16T08:09:06.655Z,14.18
2018-05-16T08:10:06.680Z,14.19
2018-05-16T08:11:06.972Z,14.2
2018-05-16T08:12:06.459Z,14.22
2018-05-16T08:13:06.433Z,14.23
2018-05-16T08:14:07.055Z,14.23
2018-05-16T08:15:06.676Z,14.24
2018-05-16T08:16:06.600Z,14.26
2018-05-16T08:17:06.591Z,14.26
2018-05-16T08:18:06.529Z,14.25
2018-05-16T08:19:06.623Z,14.24
2018-05-16T08:20:06.505Z,14.18
2018-05-16T08:21:06.445Z,14.17
2018-05-16T08:22:06.633Z,14.23
2018-05-16T08:23:06.508Z,14.26
2018-05-16T08:24:06.860Z,14.29
2018-05-16T08:25:06.524Z,14.31
2018-05-16T08:26:06.479Z,14.33
2018-05-16T08:27:06.493Z,14.38
2018-05-16T08:28:06.664Z,14.4
2018-05-16T08:29:06.968Z,14.43
2018-05-16T08:30:06.453Z,14.45
2018-05-16T08:31:07.417Z,14.46
2018-05-16T08:32:06.455Z,14.5
2018-05-16T08:33:06.470Z,14.51
2018-05-16T08:34:06.589Z,14.5
2018-05-16T08:35:06.475Z,14.5
2018-05-16T08:36:06.475Z,14.5
2018-05-16T08:37:06.634Z,14.5
2018-05-16T08:38:06.464Z,14.49
2018-05-16T08:39:06.579Z,14.47
2018-05-16T08:40:06.669Z,14.46
2018-05-16T08:41:06.512Z,14.49
2018-05-16T08:42:06.521Z,14.49
2018-05-16T08:43:07.528Z,14.48
2018-05-16T08:44:06.502Z,14.46
2018-05-16T08:45:06.475Z,14.43
2018-05-16T08:46:06.703Z,14.43
2018-05-16T08:47:06.480Z,14.39
2018-05-16T08:48:06.458Z,14.39
2018-05-16T08:49:06.486Z,14.42
2018-05-16T08:50:06.558Z,14.45
2018-05-16T08:51:06.557Z,14.44
2018-05-16T08:52:06.475Z,14.48
2018-05-16T08:53:06.768Z,14.51
2018-05-16T08:54:06.549Z,14.5
2018-05-16T08:55:13.299Z,14.47
2018-05-16T08:56:06.484Z,14.53
2018-05-16T08:57:06.447Z,14.58
2018-05-16T08:58:07.093Z,14.55
2018-05-16T08:59:06.492Z,14.65
2018-05-16T09:00:06.536Z,14.66
2018-05-16T09:01:07.104Z,14.67
2018-05-16T09:02:06.493Z,14.65
2018-05-16T09:03:06.499Z,14.67
2018-05-16T09:04:06.624Z,14.67
2018-05-16T09:05:06.590Z,14.71
2018-05-16T09:06:06.485Z,14.68
2018-05-16T09:07:07.671Z,14.7
2018-05-16T09:08:06.646Z,14.69
2018-05-16T09:09:06.559Z,14.71
2018-05-16T09:10:06.763Z,14.69
2018-05-16T09:11:06.481Z,14.73
2018-05-16T09:12:06.860Z,14.74
2018-05-16T09:13:06.573Z,14.73
2018-05-16T09:14:06.534Z,14.75
2018-05-16T09:15:06.494Z,14.73
2018-05-16T09:16:06.511Z,14.77
2018-05-16T09:17:06.504Z,14.77
2018-05-16T09:18:06.513Z,14.81
2018-05-16T09:19:06.468Z,14.86
2018-05-16T09:20:06.516Z,14.89
2018-05-16T09:21:06.536Z,14.92
2018-05-16T09:22:06.525Z,14.93
2018-05-16T09:23:06.497Z,14.97
2018-05-16T09:24:06.483Z,14.97
2018-05-16T09:25:07.321Z,14.91
2018-05-16T09:26:06.473Z,14.92
2018-05-16T09:27:06.498Z,14.96
2018-05-16T09:28:06.533Z,14.96
2018-05-16T09:29:06.500Z,14.98
2018-05-16T09:30:06.496Z,14.99
2018-05-16T09:31:06.576Z,15.02
2018-05-16T09:32:06.516Z,15.04
2018-05-16T09:33:06.532Z,15.07
2018-05-16T09:34:06.719Z,15.12
2018-05-16T09:35:06.519Z,15.17
2018-05-16T09:36:06.607Z,15.17
2018-05-16T09:37:06.527Z,15.22
2018-05-16T09:38:06.517Z,15.19
2018-05-16T09:39:06.509Z,15.22
2018-05-16T09:40:06.525Z,15.23
2018-05-16T09:41:06.622Z,15.25
2018-05-16T09:42:06.515Z,15.25
2018-05-16T09:43:06.574Z,15.25
2018-05-16T09:44:06.647Z,15.26
2018-05-16T09:45:06.505Z,15.28
2018-05-16T09:46:06.596Z,15.29
2018-05-16T09:47:06.478Z,15.34
2018-05-16T09:48:06.494Z,15.43
2018-05-16T09:49:06.809Z,15.42
2018-05-16T09:50:06.484Z,15.44
2018-05-16T09:51:06.483Z,15.53
2018-05-16T09:52:06.483Z,15.56
2018-05-16T09:53:06.663Z,15.58
2018-05-16T09:54:06.558Z,15.65
2018-05-16T09:55:06.536Z,15.69
2018-05-16T09:56:06.529Z,15.65
2018-05-16T09:57:06.538Z,15.68
2018-05-16T09:58:06.553Z,15.72
2018-05-16T09:59:06.518Z,15.73
2018-05-16T10:00:06.490Z,15.73
2018-05-16T10:01:06.721Z,15.74
2018-05-16T10:02:06.504Z,15.75
2018-05-16T10:03:06.529Z,15.77
2018-05-16T10:04:06.503Z,15.81
2018-05-16T10:05:06.573Z,15.79
2018-05-16T10:06:06.518Z,15.77
2018-05-16T10:07:06.557Z,15.68
2018-05-16T10:08:06.685Z,15.59
2018-05-16T10:09:06.540Z,15.57
2018-05-16T10:10:06.519Z,15.52
2018-05-16T10:11:06.561Z,15.46
2018-05-16T10:12:06.666Z,15.47
2018-05-16T10:13:06.768Z,15.42
2018-05-16T10:14:06.567Z,15.46
2018-05-16T10:15:06.487Z,15.49
2018-05-16T10:16:06.713Z,15.54
2018-05-16T10:17:07.359Z,15.53
2018-05-16T10:18:06.497Z,15.55
2018-05-16T10:19:06.503Z,15.56
2018-05-16T10:20:06.835Z,15.59
2018-05-16T10:21:06.516Z,15.58
2018-05-16T10:22:06.524Z,15.58
2018-05-16T10:23:06.546Z,15.58
2018-05-16T10:24:06.527Z,15.63
2018-05-16T10:25:06.697Z,15.66
2018-05-16T10:26:06.496Z,15.64
2018-05-16T10:27:06.587Z,15.63
2018-05-16T10:28:06.723Z,15.61
2018-05-16T10:29:06.501Z,15.65
2018-05-16T10:30:06.540Z,15.62
2018-05-16T10:31:06.696Z,15.61
2018-05-16T10:32:06.518Z,15.59
2018-05-16T10:33:06.767Z,15.59
2018-05-16T10:34:06.605Z,15.53
2018-05-16T10:35:06.611Z,15.49
2018-05-16T10:36:06.587Z,15.4
2018-05-16T10:37:06.639Z,15.37
2018-05-16T10:38:06.541Z,15.34
2018-05-16T10:39:06.515Z,15.38
2018-05-16T10:40:06.548Z,15.27
2018-05-16T10:41:06.530Z,15.27
2018-05-16T10:42:06.511Z,15.3
2018-05-16T10:43:06.791Z,15.25
2018-05-16T10:44:06.560Z,15.24
2018-05-16T10:45:06.554Z,15.12
2018-05-16T10:46:06.709Z,15.06
2018-05-16T10:47:06.546Z,15.09
2018-05-16T10:48:06.498Z,15.05
2018-05-16T10:49:06.509Z,15.09
2018-05-16T10:50:06.549Z,15.09
2018-05-16T10:51:06.520Z,15.1
2018-05-16T10:52:06.922Z,15.09
2018-05-16T10:53:06.633Z,15.12
2018-05-16T10:54:06.570Z,15.11
2018-05-16T10:55:06.540Z,15.14
2018-05-16T10:56:06.651Z,15.17
2018-05-16T10:57:06.580Z,15.2
2018-05-16T10:58:06.663Z,15.23
2018-05-16T10:59:06.545Z,15.24
2018-05-16T11:00:06.580Z,15.27
2018-05-16T11:01:06.526Z,15.28
2018-05-16T11:02:06.536Z,15.3
2018-05-16T11:03:06.688Z,15.33
2018-05-16T11:04:06.535Z,15.31
2018-05-16T11:05:06.565Z,15.31
2018-05-16T11:06:06.556Z,15.32
2018-05-16T11:07:06.520Z,15.37
2018-05-16T11:08:06.573Z,15.37
2018-05-16T11:09:06.556Z,15.32
2018-05-16T11:10:06.557Z,15.34
2018-05-16T11:11:06.531Z,15.36
2018-05-16T11:12:06.577Z,15.41
2018-05-16T11:13:06.550Z,15.42
2018-05-16T11:14:06.526Z,15.45
2018-05-16T11:15:06.667Z,15.48
2018-05-16T11:16:06.553Z,15.49
2018-05-16T11:17:06.533Z,15.57
2018-05-16T11:18:06.544Z,15.6
2018-05-16T11:19:06.586Z,15.61
2018-05-16T11:20:06.553Z,15.65
2018-05-16T11:21:06.543Z,15.68
2018-05-16T11:22:06.678Z,15.69
2018-05-16T11:23:06.565Z,15.66
2018-05-16T11:24:06.558Z,15.67
2018-05-16T11:25:06.666Z,15.71
2018-05-16T11:26:06.900Z,15.89
2018-05-16T11:27:06.533Z,15.9
2018-05-16T11:28:06.561Z,15.9
2018-05-16T11:29:06.542Z,15.92
2018-05-16T11:30:06.590Z,15.94
2018-05-16T11:31:06.556Z,16
2018-05-16T11:32:06.584Z,16.06
2018-05-16T11:33:06.715Z,16.01
2018-05-16T11:34:06.713Z,16.01
2018-05-16T11:35:06.737Z,16.03
2018-05-16T11:36:06.738Z,16.04
2018-05-16T11:37:06.657Z,16.02
2018-05-16T11:38:06.681Z,15.95
2018-05-16T11:39:06.667Z,16.01
2018-05-16T11:40:06.596Z,16.01
2018-05-16T11:41:06.591Z,15.98
2018-05-16T11:42:06.701Z,15.96
2018-05-16T11:43:06.688Z,16.01
2018-05-16T11:44:06.713Z,16.07
2018-05-16T11:45:06.560Z,16.08
2018-05-16T11:46:06.735Z,16.12
2018-05-16T11:48:06.734Z,16.27
2018-05-16T11:49:06.591Z,16.4
2018-05-16T11:50:06.748Z,16.42
2018-05-16T11:51:06.672Z,16.49
2018-05-16T11:52:06.531Z,16.43
2018-05-16T11:53:06.588Z,16.44
2018-05-16T11:54:06.662Z,16.52
2018-05-16T11:55:06.543Z,16.52
2018-05-16T11:56:06.563Z,16.6
2018-05-16T11:57:06.601Z,16.7
2018-05-16T11:58:06.824Z,16.74
2018-05-16T11:59:06.689Z,16.76
2018-05-16T12:00:06.701Z,16.85
2018-05-16T12:01:06.633Z,16.89
2018-05-16T12:02:06.746Z,17.07
2018-05-16T12:03:06.587Z,16.97
2018-05-16T12:04:06.626Z,16.91
2018-05-16T12:05:06.628Z,16.86
2018-05-16T12:06:06.752Z,16.86
2018-05-16T12:07:06.879Z,16.94
2018-05-16T12:08:06.612Z,16.9
2018-05-16T12:09:07.266Z,16.88
2018-05-16T12:10:06.542Z,16.88
2018-05-16T12:11:06.595Z,16.9
2018-05-16T12:12:06.607Z,16.9
2018-05-16T12:13:06.573Z,16.94
2018-05-16T12:14:06.653Z,16.95
2018-05-16T12:15:06.591Z,16.97
2018-05-16T12:16:07.751Z,16.96
2018-05-16T12:17:06.723Z,16.95
2018-05-16T12:18:06.624Z,16.94
2018-05-16T12:19:06.592Z,16.9
2018-05-16T12:20:06.592Z,16.95
2018-05-16T12:21:06.694Z,16.99
2018-05-16T12:22:06.703Z,17.03
2018-05-16T12:23:06.587Z,17.05
2018-05-16T12:24:06.621Z,17.08
2018-05-16T12:25:06.563Z,17.15
2018-05-16T12:26:06.561Z,17.13
2018-05-16T12:27:06.606Z,17.15
2018-05-16T12:28:06.612Z,17.17
2018-05-16T12:29:08.134Z,17.29
2018-05-16T12:30:06.735Z,17.34
2018-05-16T12:31:06.942Z,17.27
2018-05-16T12:32:06.727Z,17.31
2018-05-16T12:33:06.612Z,17.38
2018-05-16T12:34:06.711Z,17.41
2018-05-16T12:35:06.613Z,17.37
2018-05-16T12:36:06.605Z,17.24
2018-05-16T12:37:06.683Z,17.25
2018-05-16T12:38:06.784Z,17.28
2018-05-16T12:39:07.466Z,17.35
2018-05-16T12:40:06.802Z,17.42
2018-05-16T12:41:06.800Z,17.49
2018-05-16T12:42:06.758Z,17.55
2018-05-16T12:43:07.026Z,17.47
2018-05-16T12:44:06.617Z,17.43
2018-05-16T12:45:06.581Z,17.43
2018-05-16T12:46:06.590Z,17.47
2018-05-16T12:47:06.850Z,17.47
2018-05-16T12:48:06.936Z,17.53
2018-05-16T12:49:06.577Z,17.7
2018-05-16T12:50:06.584Z,17.76
2018-05-16T12:51:06.602Z,17.86
2018-05-16T12:52:06.628Z,17.84
2018-05-16T12:53:06.779Z,17.83
2018-05-16T12:54:06.578Z,17.86
2018-05-16T12:55:06.781Z,17.82
2018-05-16T12:56:06.775Z,17.78